sensor_id;sensor_type;location;lat;lon;timestamp;temperature;humidity
67163;DHT22;54092;53.088;8.850;2023-07-20T00:01:14;15.10;99.90
67163;DHT22;54092;53.088;8.850;2023-07-20T00:03:40;15.20;99.90
67163;DHT22;54092;53.088;8.850;2023-07-20T00:06:05;15.20;99.90
67163;DHT22;54092;53.088;8.850;2023-07-20T00:08:31;15.20;99.90
67163;DHT22;54092;53.088;8.850;2023-07-20T00:10:56;15.20;99.90
67163;DHT22;54092;53.088;8.850;2023-07-20T00:13:22;15.20;99.90
67163;DHT22;54092;53.088;8.850;2023-07-20T00:15:48;15.30;99.90
67163;DHT22;54092;53.088;8.850;2023-07-20T00:18:13;15.30;99.90
67163;DHT22;54092;53.088;8.850;2023-07-20T00:20:40;15.30;99.90
67163;DHT22;54092;53.088;8.850;2023-07-20T00:23:06;15.30;99.90
67163;DHT22;54092;53.088;8.850;2023-07-20T00:25:32;15.30;99.90
67163;DHT22;54092;53.088;8.850;2023-07-20T00:27:58;15.30;99.90
67163;DHT22;54092;53.088;8.850;2023-07-20T00:30:24;15.30;99.90
67163;DHT22;54092;53.088;8.850;2023-07-20T00:32:49;15.30;99.90
67163;DHT22;54092;53.088;8.850;2023-07-20T00:35:15;15.30;99.90
67163;DHT22;54092;53.088;8.850;2023-07-20T00:37:40;15.30;99.90
67163;DHT22;54092;53.088;8.850;2023-07-20T00:40:06;15.30;99.90
67163;DHT22;54092;53.088;8.850;2023-07-20T00:42:35;15.30;99.90
67163;DHT22;54092;53.088;8.850;2023-07-20T00:45:00;15.30;99.90
67163;DHT22;54092;53.088;8.850;2023-07-20T00:47:27;15.30;99.90
67163;DHT22;54092;53.088;8.850;2023-07-20T00:49:53;15.40;99.90
67163;DHT22;54092;53.088;8.850;2023-07-20T00:52:21;15.40;99.90
67163;DHT22;54092;53.088;8.850;2023-07-20T00:54:47;15.40;99.90
67163;DHT22;54092;53.088;8.850;2023-07-20T00:57:16;15.40;99.90
67163;DHT22;54092;53.088;8.850;2023-07-20T00:59:42;15.40;99.90
67163;DHT22;54092;53.088;8.850;2023-07-20T01:02:08;15.40;99.90
67163;DHT22;54092;53.088;8.850;2023-07-20T01:04:35;15.40;99.90
67163;DHT22;54092;53.088;8.850;2023-07-20T01:07:25;15.30;99.90
67163;DHT22;54092;53.088;8.850;2023-07-20T01:10:14;15.10;99.90
67163;DHT22;54092;53.088;8.850;2023-07-20T01:12:47;15.00;99.90
67163;DHT22;54092;53.088;8.850;2023-07-20T01:15:13;15.00;99.90
67163;DHT22;54092;53.088;8.850;2023-07-20T01:17:39;14.90;99.90
67163;DHT22;54092;53.088;8.850;2023-07-20T01:20:07;14.90;99.90
67163;DHT22;54092;53.088;8.850;2023-07-20T01:25:11;14.80;99.90
67163;DHT22;54092;53.088;8.850;2023-07-20T01:28:08;14.70;99.90
67163;DHT22;54092;53.088;8.850;2023-07-20T01:33:12;14.70;99.90
67163;DHT22;54092;53.088;8.850;2023-07-20T01:35:38;14.70;99.90
67163;DHT22;54092;53.088;8.850;2023-07-20T01:38:07;14.70;99.90
67163;DHT22;54092;53.088;8.850;2023-07-20T01:40:33;14.60;99.90
67163;DHT22;54092;53.088;8.850;2023-07-20T01:42:59;14.50;99.90
67163;DHT22;54092;53.088;8.850;2023-07-20T01:45:25;14.60;99.90
67163;DHT22;54092;53.088;8.850;2023-07-20T01:47:51;14.50;99.90
67163;DHT22;54092;53.088;8.850;2023-07-20T01:50:16;14.50;99.90
67163;DHT22;54092;53.088;8.850;2023-07-20T01:52:42;14.40;99.90
67163;DHT22;54092;53.088;8.850;2023-07-20T01:55:08;14.50;99.90
67163;DHT22;54092;53.088;8.850;2023-07-20T01:57:33;14.40;99.90
67163;DHT22;54092;53.088;8.850;2023-07-20T01:59:59;14.40;99.90
67163;DHT22;54092;53.088;8.850;2023-07-20T02:02:27;14.50;99.90
67163;DHT22;54092;53.088;8.850;2023-07-20T02:04:53;14.40;99.90
67163;DHT22;54092;53.088;8.850;2023-07-20T02:07:19;14.40;99.90
67163;DHT22;54092;53.088;8.850;2023-07-20T02:09:44;14.40;99.90
67163;DHT22;54092;53.088;8.850;2023-07-20T02:12:10;14.40;99.90
67163;DHT22;54092;53.088;8.850;2023-07-20T02:14:35;14.50;99.90
67163;DHT22;54092;53.088;8.850;2023-07-20T02:17:01;14.40;99.90
67163;DHT22;54092;53.088;8.850;2023-07-20T02:19:28;14.40;99.90
67163;DHT22;54092;53.088;8.850;2023-07-20T02:21:53;14.40;99.90
67163;DHT22;54092;53.088;8.850;2023-07-20T02:24:19;14.40;99.90
67163;DHT22;54092;53.088;8.850;2023-07-20T02:26:44;14.40;99.90
67163;DHT22;54092;53.088;8.850;2023-07-20T02:29:10;14.40;99.90
67163;DHT22;54092;53.088;8.850;2023-07-20T02:31:39;14.30;99.90
67163;DHT22;54092;53.088;8.850;2023-07-20T02:34:05;14.20;99.90
67163;DHT22;54092;53.088;8.850;2023-07-20T02:36:31;14.20;99.90
67163;DHT22;54092;53.088;8.850;2023-07-20T02:38:58;14.20;99.90
67163;DHT22;54092;53.088;8.850;2023-07-20T02:41:24;14.10;99.90
67163;DHT22;54092;53.088;8.850;2023-07-20T02:43:49;14.00;99.90
67163;DHT22;54092;53.088;8.850;2023-07-20T02:46:15;13.90;99.90
67163;DHT22;54092;53.088;8.850;2023-07-20T02:48:41;13.90;99.90
67163;DHT22;54092;53.088;8.850;2023-07-20T02:51:06;13.80;99.90
67163;DHT22;54092;53.088;8.850;2023-07-20T02:53:33;13.80;99.90
67163;DHT22;54092;53.088;8.850;2023-07-20T02:55:59;13.80;99.90
67163;DHT22;54092;53.088;8.850;2023-07-20T02:58:24;13.80;99.90
67163;DHT22;54092;53.088;8.850;2023-07-20T03:00:50;13.80;99.90
67163;DHT22;54092;53.088;8.850;2023-07-20T03:03:15;13.80;99.90
67163;DHT22;54092;53.088;8.850;2023-07-20T03:05:42;13.70;99.90
67163;DHT22;54092;53.088;8.850;2023-07-20T03:08:07;13.70;99.90
67163;DHT22;54092;53.088;8.850;2023-07-20T03:10:39;13.80;99.90
67163;DHT22;54092;53.088;8.850;2023-07-20T03:13:06;13.80;99.90
67163;DHT22;54092;53.088;8.850;2023-07-20T03:15:31;13.80;99.90
67163;DHT22;54092;53.088;8.850;2023-07-20T03:17:57;13.90;99.90
67163;DHT22;54092;53.088;8.850;2023-07-20T03:20:24;13.90;99.90
67163;DHT22;54092;53.088;8.850;2023-07-20T03:22:49;13.90;99.90
67163;DHT22;54092;53.088;8.850;2023-07-20T03:25:15;13.90;99.90
67163;DHT22;54092;53.088;8.850;2023-07-20T03:27:41;14.00;99.90
67163;DHT22;54092;53.088;8.850;2023-07-20T03:30:06;14.00;99.90
67163;DHT22;54092;53.088;8.850;2023-07-20T03:32:32;14.10;99.90
67163;DHT22;54092;53.088;8.850;2023-07-20T03:34:58;14.10;99.90
67163;DHT22;54092;53.088;8.850;2023-07-20T03:37:23;14.10;99.90
67163;DHT22;54092;53.088;8.850;2023-07-20T03:39:49;14.10;99.90
67163;DHT22;54092;53.088;8.850;2023-07-20T03:42:15;14.20;99.90
67163;DHT22;54092;53.088;8.850;2023-07-20T03:44:40;14.20;99.90
67163;DHT22;54092;53.088;8.850;2023-07-20T03:47:06;14.20;99.90
67163;DHT22;54092;53.088;8.850;2023-07-20T03:49:32;14.20;99.90
67163;DHT22;54092;53.088;8.850;2023-07-20T03:51:57;14.30;99.90
67163;DHT22;54092;53.088;8.850;2023-07-20T03:54:23;14.30;99.90
67163;DHT22;54092;53.088;8.850;2023-07-20T03:56:48;14.30;99.90
67163;DHT22;54092;53.088;8.850;2023-07-20T03:59:14;14.30;99.90
67163;DHT22;54092;53.088;8.850;2023-07-20T04:01:40;14.30;99.90
67163;DHT22;54092;53.088;8.850;2023-07-20T04:04:07;14.40;99.90
67163;DHT22;54092;53.088;8.850;2023-07-20T04:06:33;14.40;99.90
67163;DHT22;54092;53.088;8.850;2023-07-20T04:08:59;14.40;99.90
67163;DHT22;54092;53.088;8.850;2023-07-20T04:11:24;14.40;99.90
67163;DHT22;54092;53.088;8.850;2023-07-20T04:13:50;14.40;99.90
67163;DHT22;54092;53.088;8.850;2023-07-20T04:16:15;14.40;99.90
67163;DHT22;54092;53.088;8.850;2023-07-20T04:18:41;14.40;99.90
67163;DHT22;54092;53.088;8.850;2023-07-20T04:21:08;14.50;99.90
67163;DHT22;54092;53.088;8.850;2023-07-20T04:23:33;14.40;99.90
67163;DHT22;54092;53.088;8.850;2023-07-20T04:26:00;14.50;99.90
67163;DHT22;54092;53.088;8.850;2023-07-20T04:28:26;14.50;99.90
67163;DHT22;54092;53.088;8.850;2023-07-20T04:30:52;14.50;99.90
67163;DHT22;54092;53.088;8.850;2023-07-20T04:33:18;14.50;99.90
67163;DHT22;54092;53.088;8.850;2023-07-20T04:35:54;14.50;99.90
67163;DHT22;54092;53.088;8.850;2023-07-20T04:38:20;14.50;99.90
67163;DHT22;54092;53.088;8.850;2023-07-20T04:40:47;14.50;99.90
67163;DHT22;54092;53.088;8.850;2023-07-20T04:43:14;14.50;99.90
67163;DHT22;54092;53.088;8.850;2023-07-20T04:45:40;14.50;99.90
67163;DHT22;54092;53.088;8.850;2023-07-20T04:48:13;14.50;99.90
67163;DHT22;54092;53.088;8.850;2023-07-20T04:50:44;14.50;99.90
67163;DHT22;54092;53.088;8.850;2023-07-20T04:53:10;14.50;99.90
67163;DHT22;54092;53.088;8.850;2023-07-20T04:55:37;14.50;99.90
67163;DHT22;54092;53.088;8.850;2023-07-20T04:58:03;14.50;99.90
67163;DHT22;54092;53.088;8.850;2023-07-20T05:00:30;14.60;99.90
67163;DHT22;54092;53.088;8.850;2023-07-20T05:02:56;14.50;99.90
67163;DHT22;54092;53.088;8.850;2023-07-20T05:05:22;14.60;99.90
67163;DHT22;54092;53.088;8.850;2023-07-20T05:07:47;14.60;99.90
67163;DHT22;54092;53.088;8.850;2023-07-20T05:10:13;14.60;99.90
67163;DHT22;54092;53.088;8.850;2023-07-20T05:12:38;14.60;99.90
67163;DHT22;54092;53.088;8.850;2023-07-20T05:15:04;14.70;99.90
67163;DHT22;54092;53.088;8.850;2023-07-20T05:17:30;14.70;99.90
67163;DHT22;54092;53.088;8.850;2023-07-20T05:19:55;14.70;99.90
67163;DHT22;54092;53.088;8.850;2023-07-20T05:22:21;14.70;99.90
67163;DHT22;54092;53.088;8.850;2023-07-20T05:24:46;14.70;99.90
67163;DHT22;54092;53.088;8.850;2023-07-20T05:27:12;14.80;99.90
67163;DHT22;54092;53.088;8.850;2023-07-20T05:29:37;14.70;99.90
67163;DHT22;54092;53.088;8.850;2023-07-20T05:32:03;14.80;99.90
67163;DHT22;54092;53.088;8.850;2023-07-20T05:34:29;14.80;99.90
67163;DHT22;54092;53.088;8.850;2023-07-20T05:36:55;14.80;99.90
67163;DHT22;54092;53.088;8.850;2023-07-20T05:39:20;14.90;99.90
67163;DHT22;54092;53.088;8.850;2023-07-20T05:41:46;14.80;99.90
67163;DHT22;54092;53.088;8.850;2023-07-20T05:44:11;14.90;99.90
67163;DHT22;54092;53.088;8.850;2023-07-20T05:46:37;14.90;99.90
67163;DHT22;54092;53.088;8.850;2023-07-20T05:49:03;15.00;99.90
67163;DHT22;54092;53.088;8.850;2023-07-20T05:51:28;15.00;99.90
67163;DHT22;54092;53.088;8.850;2023-07-20T05:53:54;15.10;99.90
67163;DHT22;54092;53.088;8.850;2023-07-20T05:56:19;15.20;99.90
67163;DHT22;54092;53.088;8.850;2023-07-20T05:58:45;15.30;99.90
67163;DHT22;54092;53.088;8.850;2023-07-20T06:01:11;15.20;99.90
67163;DHT22;54092;53.088;8.850;2023-07-20T06:03:36;15.30;99.90
67163;DHT22;54092;53.088;8.850;2023-07-20T06:06:03;15.40;99.90
67163;DHT22;54092;53.088;8.850;2023-07-20T06:08:33;15.40;99.90
67163;DHT22;54092;53.088;8.850;2023-07-20T06:10:59;15.50;99.90
67163;DHT22;54092;53.088;8.850;2023-07-20T06:13:25;15.60;99.90
67163;DHT22;54092;53.088;8.850;2023-07-20T06:15:51;15.60;99.90
67163;DHT22;54092;53.088;8.850;2023-07-20T06:18:17;15.70;99.90
67163;DHT22;54092;53.088;8.850;2023-07-20T06:20:42;15.70;99.90
67163;DHT22;54092;53.088;8.850;2023-07-20T06:23:08;15.80;99.90
67163;DHT22;54092;53.088;8.850;2023-07-20T06:25:33;15.90;99.90
67163;DHT22;54092;53.088;8.850;2023-07-20T06:27:59;15.90;99.90
67163;DHT22;54092;53.088;8.850;2023-07-20T06:30:24;15.90;99.90
67163;DHT22;54092;53.088;8.850;2023-07-20T06:32:51;16.00;99.90
67163;DHT22;54092;53.088;8.850;2023-07-20T06:35:17;16.10;99.90
67163;DHT22;54092;53.088;8.850;2023-07-20T06:37:43;16.20;99.90
67163;DHT22;54092;53.088;8.850;2023-07-20T06:40:08;16.30;99.90
67163;DHT22;54092;53.088;8.850;2023-07-20T06:42:34;16.30;99.90
67163;DHT22;54092;53.088;8.850;2023-07-20T06:45:00;16.30;99.90
67163;DHT22;54092;53.088;8.850;2023-07-20T06:47:26;16.40;99.90
67163;DHT22;54092;53.088;8.850;2023-07-20T06:49:52;16.40;99.90
67163;DHT22;54092;53.088;8.850;2023-07-20T06:52:18;16.40;99.90
67163;DHT22;54092;53.088;8.850;2023-07-20T06:54:43;16.40;99.90
67163;DHT22;54092;53.088;8.850;2023-07-20T06:57:10;16.50;99.90
67163;DHT22;54092;53.088;8.850;2023-07-20T06:59:35;16.50;99.90
67163;DHT22;54092;53.088;8.850;2023-07-20T07:02:01;16.60;99.90
67163;DHT22;54092;53.088;8.850;2023-07-20T07:04:26;16.70;99.90
67163;DHT22;54092;53.088;8.850;2023-07-20T07:06:52;16.80;99.90
67163;DHT22;54092;53.088;8.850;2023-07-20T07:09:18;16.90;99.90
67163;DHT22;54092;53.088;8.850;2023-07-20T07:11:44;17.00;99.90
67163;DHT22;54092;53.088;8.850;2023-07-20T07:14:10;17.00;99.90
67163;DHT22;54092;53.088;8.850;2023-07-20T07:16:35;17.10;99.90
67163;DHT22;54092;53.088;8.850;2023-07-20T07:19:01;17.20;99.90
67163;DHT22;54092;53.088;8.850;2023-07-20T07:21:26;17.20;99.90
67163;DHT22;54092;53.088;8.850;2023-07-20T07:23:52;17.20;99.90
67163;DHT22;54092;53.088;8.850;2023-07-20T07:26:19;17.40;99.90
67163;DHT22;54092;53.088;8.850;2023-07-20T07:28:45;17.50;99.90
67163;DHT22;54092;53.088;8.850;2023-07-20T07:31:11;17.40;99.90
67163;DHT22;54092;53.088;8.850;2023-07-20T07:33:37;17.40;99.90
67163;DHT22;54092;53.088;8.850;2023-07-20T07:36:02;17.50;99.90
67163;DHT22;54092;53.088;8.850;2023-07-20T07:38:28;17.70;99.90
67163;DHT22;54092;53.088;8.850;2023-07-20T07:40:54;17.70;99.90
67163;DHT22;54092;53.088;8.850;2023-07-20T07:43:19;17.80;99.90
67163;DHT22;54092;53.088;8.850;2023-07-20T07:45:45;17.90;99.90
67163;DHT22;54092;53.088;8.850;2023-07-20T07:48:10;17.70;99.90
67163;DHT22;54092;53.088;8.850;2023-07-20T07:50:38;17.70;99.90
67163;DHT22;54092;53.088;8.850;2023-07-20T07:53:05;17.90;99.90
67163;DHT22;54092;53.088;8.850;2023-07-20T07:55:31;17.80;99.90
67163;DHT22;54092;53.088;8.850;2023-07-20T07:57:57;17.60;99.90
67163;DHT22;54092;53.088;8.850;2023-07-20T08:00:22;17.70;99.90
67163;DHT22;54092;53.088;8.850;2023-07-20T08:02:50;17.80;99.90
67163;DHT22;54092;53.088;8.850;2023-07-20T08:05:16;18.10;99.90
67163;DHT22;54092;53.088;8.850;2023-07-20T08:07:42;18.30;99.90
67163;DHT22;54092;53.088;8.850;2023-07-20T08:10:09;18.40;99.90
67163;DHT22;54092;53.088;8.850;2023-07-20T08:12:35;18.50;99.90
67163;DHT22;54092;53.088;8.850;2023-07-20T08:15:00;18.60;99.90
67163;DHT22;54092;53.088;8.850;2023-07-20T08:17:26;18.70;99.90
67163;DHT22;54092;53.088;8.850;2023-07-20T08:19:51;18.80;99.90
67163;DHT22;54092;53.088;8.850;2023-07-20T08:22:17;19.10;99.90
67163;DHT22;54092;53.088;8.850;2023-07-20T08:24:43;19.10;99.90
67163;DHT22;54092;53.088;8.850;2023-07-20T08:27:09;19.10;99.90
67163;DHT22;54092;53.088;8.850;2023-07-20T08:29:35;19.20;99.90
67163;DHT22;54092;53.088;8.850;2023-07-20T08:32:01;18.90;99.90
67163;DHT22;54092;53.088;8.850;2023-07-20T08:34:27;18.60;99.90
67163;DHT22;54092;53.088;8.850;2023-07-20T08:36:52;18.60;99.90
67163;DHT22;54092;53.088;8.850;2023-07-20T08:39:18;18.80;99.90
67163;DHT22;54092;53.088;8.850;2023-07-20T08:41:44;18.90;99.90
67163;DHT22;54092;53.088;8.850;2023-07-20T08:44:10;19.10;99.90
67163;DHT22;54092;53.088;8.850;2023-07-20T08:46:38;19.00;99.90
67163;DHT22;54092;53.088;8.850;2023-07-20T08:49:04;18.90;99.90
67163;DHT22;54092;53.088;8.850;2023-07-20T08:51:30;19.20;99.90
67163;DHT22;54092;53.088;8.850;2023-07-20T08:53:56;19.60;99.90
67163;DHT22;54092;53.088;8.850;2023-07-20T08:56:23;19.60;99.90
67163;DHT22;54092;53.088;8.850;2023-07-20T08:58:51;19.30;99.90
67163;DHT22;54092;53.088;8.850;2023-07-20T09:01:18;19.50;99.90
67163;DHT22;54092;53.088;8.850;2023-07-20T09:03:45;20.10;99.90
67163;DHT22;54092;53.088;8.850;2023-07-20T09:06:10;20.90;99.90
67163;DHT22;54092;53.088;8.850;2023-07-20T09:08:39;21.90;99.90
67163;DHT22;54092;53.088;8.850;2023-07-20T09:11:05;21.80;99.90
67163;DHT22;54092;53.088;8.850;2023-07-20T09:13:33;21.80;99.90
67163;DHT22;54092;53.088;8.850;2023-07-20T09:15:59;22.10;99.90
67163;DHT22;54092;53.088;8.850;2023-07-20T09:18:29;22.40;99.90
67163;DHT22;54092;53.088;8.850;2023-07-20T09:21:00;23.00;99.90
67163;DHT22;54092;53.088;8.850;2023-07-20T09:23:33;23.40;99.90
67163;DHT22;54092;53.088;8.850;2023-07-20T09:26:00;23.80;99.90
67163;DHT22;54092;53.088;8.850;2023-07-20T09:28:26;24.20;99.90
67163;DHT22;54092;53.088;8.850;2023-07-20T09:30:52;24.40;99.90
67163;DHT22;54092;53.088;8.850;2023-07-20T09:33:19;23.60;99.90
67163;DHT22;54092;53.088;8.850;2023-07-20T09:35:46;22.70;99.90
67163;DHT22;54092;53.088;8.850;2023-07-20T09:38:11;23.10;99.90
67163;DHT22;54092;53.088;8.850;2023-07-20T09:40:39;23.40;99.90
67163;DHT22;54092;53.088;8.850;2023-07-20T09:43:08;24.00;99.90
67163;DHT22;54092;53.088;8.850;2023-07-20T09:45:35;24.60;99.90
67163;DHT22;54092;53.088;8.850;2023-07-20T09:48:08;25.00;99.90
67163;DHT22;54092;53.088;8.850;2023-07-20T09:50:48;25.20;99.90
67163;DHT22;54092;53.088;8.850;2023-07-20T09:53:15;25.40;99.90
67163;DHT22;54092;53.088;8.850;2023-07-20T09:55:44;25.80;99.90
67163;DHT22;54092;53.088;8.850;2023-07-20T09:58:10;26.20;99.90
67163;DHT22;54092;53.088;8.850;2023-07-20T10:00:37;25.80;99.90
67163;DHT22;54092;53.088;8.850;2023-07-20T10:03:04;25.20;99.90
67163;DHT22;54092;53.088;8.850;2023-07-20T10:05:33;24.10;99.90
67163;DHT22;54092;53.088;8.850;2023-07-20T10:08:02;23.40;99.90
67163;DHT22;54092;53.088;8.850;2023-07-20T10:10:29;23.00;99.90
67163;DHT22;54092;53.088;8.850;2023-07-20T10:12:57;24.20;99.90
67163;DHT22;54092;53.088;8.850;2023-07-20T10:15:24;24.60;99.90
67163;DHT22;54092;53.088;8.850;2023-07-20T10:18:12;23.90;99.90
67163;DHT22;54092;53.088;8.850;2023-07-20T10:20:40;22.10;99.90
67163;DHT22;54092;53.088;8.850;2023-07-20T10:23:07;21.00;99.90
67163;DHT22;54092;53.088;8.850;2023-07-20T10:25:33;20.10;99.90
67163;DHT22;54092;53.088;8.850;2023-07-20T10:28:06;19.70;99.90
67163;DHT22;54092;53.088;8.850;2023-07-20T10:30:34;19.50;99.90
67163;DHT22;54092;53.088;8.850;2023-07-20T10:33:01;19.70;99.90
67163;DHT22;54092;53.088;8.850;2023-07-20T10:35:28;20.10;99.90
67163;DHT22;54092;53.088;8.850;2023-07-20T10:37:56;20.70;99.90
67163;DHT22;54092;53.088;8.850;2023-07-20T10:40:26;21.20;99.90
67163;DHT22;54092;53.088;8.850;2023-07-20T10:45:52;21.00;99.90
67163;DHT22;54092;53.088;8.850;2023-07-20T10:48:20;21.10;99.90
67163;DHT22;54092;53.088;8.850;2023-07-20T10:50:48;21.70;99.90
67163;DHT22;54092;53.088;8.850;2023-07-20T10:53:31;22.10;99.90
67163;DHT22;54092;53.088;8.850;2023-07-20T10:56:12;22.40;99.90
67163;DHT22;54092;53.088;8.850;2023-07-20T10:58:39;23.60;99.90
67163;DHT22;54092;53.088;8.850;2023-07-20T11:01:05;24.30;99.90
67163;DHT22;54092;53.088;8.850;2023-07-20T11:03:34;24.00;99.90
67163;DHT22;54092;53.088;8.850;2023-07-20T11:11:34;22.80;99.90
67163;DHT22;54092;53.088;8.850;2023-07-20T11:14:24;23.70;99.90
67163;DHT22;54092;53.088;8.850;2023-07-20T11:16:51;23.80;99.90
67163;DHT22;54092;53.088;8.850;2023-07-20T11:19:19;23.90;99.90
67163;DHT22;54092;53.088;8.850;2023-07-20T11:21:46;23.50;99.90
67163;DHT22;54092;53.088;8.850;2023-07-20T11:24:14;22.80;99.90
67163;DHT22;54092;53.088;8.850;2023-07-20T11:26:44;22.40;99.90
67163;DHT22;54092;53.088;8.850;2023-07-20T11:29:10;23.00;99.90
67163;DHT22;54092;53.088;8.850;2023-07-20T11:31:37;23.20;99.90
67163;DHT22;54092;53.088;8.850;2023-07-20T11:34:03;24.00;99.90
67163;DHT22;54092;53.088;8.850;2023-07-20T11:36:29;24.80;99.90
67163;DHT22;54092;53.088;8.850;2023-07-20T11:38:54;24.90;99.90
67163;DHT22;54092;53.088;8.850;2023-07-20T11:41:20;24.30;99.90
67163;DHT22;54092;53.088;8.850;2023-07-20T11:43:47;24.30;99.90
67163;DHT22;54092;53.088;8.850;2023-07-20T11:46:13;24.20;99.90
67163;DHT22;54092;53.088;8.850;2023-07-20T11:48:38;23.90;99.90
67163;DHT22;54092;53.088;8.850;2023-07-20T11:51:05;24.40;99.90
67163;DHT22;54092;53.088;8.850;2023-07-20T11:53:31;24.50;99.90
67163;DHT22;54092;53.088;8.850;2023-07-20T11:55:58;24.70;99.90
67163;DHT22;54092;53.088;8.850;2023-07-20T11:58:24;24.20;99.90
67163;DHT22;54092;53.088;8.850;2023-07-20T12:00:50;22.90;99.90
67163;DHT22;54092;53.088;8.850;2023-07-20T12:03:15;22.00;99.90
67163;DHT22;54092;53.088;8.850;2023-07-20T12:05:41;21.50;99.90
67163;DHT22;54092;53.088;8.850;2023-07-20T12:08:07;21.00;99.90
67163;DHT22;54092;53.088;8.850;2023-07-20T12:10:33;20.60;99.90
67163;DHT22;54092;53.088;8.850;2023-07-20T12:13:02;20.30;99.90
67163;DHT22;54092;53.088;8.850;2023-07-20T12:15:32;20.00;99.90
67163;DHT22;54092;53.088;8.850;2023-07-20T12:17:59;19.80;99.90
67163;DHT22;54092;53.088;8.850;2023-07-20T12:20:29;19.60;99.90
67163;DHT22;54092;53.088;8.850;2023-07-20T12:23:04;19.20;99.90
67163;DHT22;54092;53.088;8.850;2023-07-20T12:25:40;19.00;99.90
67163;DHT22;54092;53.088;8.850;2023-07-20T12:28:10;19.40;99.90
67163;DHT22;54092;53.088;8.850;2023-07-20T12:30:39;20.50;99.90
67163;DHT22;54092;53.088;8.850;2023-07-20T12:33:05;21.10;99.90
67163;DHT22;54092;53.088;8.850;2023-07-20T12:35:31;21.30;99.90
67163;DHT22;54092;53.088;8.850;2023-07-20T12:37:57;21.10;99.90
67163;DHT22;54092;53.088;8.850;2023-07-20T12:40:22;21.30;99.90
67163;DHT22;54092;53.088;8.850;2023-07-20T12:42:48;22.20;99.90
67163;DHT22;54092;53.088;8.850;2023-07-20T12:45:14;22.10;99.90
67163;DHT22;54092;53.088;8.850;2023-07-20T12:47:40;21.80;99.90
67163;DHT22;54092;53.088;8.850;2023-07-20T12:50:07;21.30;99.90
67163;DHT22;54092;53.088;8.850;2023-07-20T12:52:36;20.80;99.90
67163;DHT22;54092;53.088;8.850;2023-07-20T12:55:04;20.50;99.90
67163;DHT22;54092;53.088;8.850;2023-07-20T12:57:30;20.50;99.90
67163;DHT22;54092;53.088;8.850;2023-07-20T12:59:55;20.30;99.90
67163;DHT22;54092;53.088;8.850;2023-07-20T13:02:21;20.60;99.90
67163;DHT22;54092;53.088;8.850;2023-07-20T13:04:46;21.30;99.90
67163;DHT22;54092;53.088;8.850;2023-07-20T13:07:12;21.30;99.90
67163;DHT22;54092;53.088;8.850;2023-07-20T13:09:38;21.00;99.90
67163;DHT22;54092;53.088;8.850;2023-07-20T13:12:03;20.80;99.90
67163;DHT22;54092;53.088;8.850;2023-07-20T13:14:29;20.60;99.90
67163;DHT22;54092;53.088;8.850;2023-07-20T13:16:57;20.70;99.90
67163;DHT22;54092;53.088;8.850;2023-07-20T13:19:23;20.90;99.90
67163;DHT22;54092;53.088;8.850;2023-07-20T13:21:48;21.00;99.90
67163;DHT22;54092;53.088;8.850;2023-07-20T13:24:14;20.80;99.90
67163;DHT22;54092;53.088;8.850;2023-07-20T13:26:40;20.60;99.90
67163;DHT22;54092;53.088;8.850;2023-07-20T13:29:06;20.40;99.90
67163;DHT22;54092;53.088;8.850;2023-07-20T13:31:31;20.40;99.90
67163;DHT22;54092;53.088;8.850;2023-07-20T13:33:57;20.40;99.90
67163;DHT22;54092;53.088;8.850;2023-07-20T13:36:23;20.50;99.90
67163;DHT22;54092;53.088;8.850;2023-07-20T13:38:49;20.60;99.90
67163;DHT22;54092;53.088;8.850;2023-07-20T13:41:14;20.80;99.90
67163;DHT22;54092;53.088;8.850;2023-07-20T13:43:41;20.80;99.90
67163;DHT22;54092;53.088;8.850;2023-07-20T13:46:07;21.00;99.90
67163;DHT22;54092;53.088;8.850;2023-07-20T13:48:32;21.00;99.90
67163;DHT22;54092;53.088;8.850;2023-07-20T13:50:58;21.00;99.90
67163;DHT22;54092;53.088;8.850;2023-07-20T13:53:23;21.10;99.90
67163;DHT22;54092;53.088;8.850;2023-07-20T13:55:49;21.10;99.90
67163;DHT22;54092;53.088;8.850;2023-07-20T13:58:15;21.20;99.90
67163;DHT22;54092;53.088;8.850;2023-07-20T14:00:40;21.10;99.90
67163;DHT22;54092;53.088;8.850;2023-07-20T14:03:06;20.90;99.90
67163;DHT22;54092;53.088;8.850;2023-07-20T14:05:31;20.70;99.90
67163;DHT22;54092;53.088;8.850;2023-07-20T14:07:57;20.70;99.90
67163;DHT22;54092;53.088;8.850;2023-07-20T14:10:23;20.50;99.90
67163;DHT22;54092;53.088;8.850;2023-07-20T14:12:49;20.40;99.90
67163;DHT22;54092;53.088;8.850;2023-07-20T14:15:14;20.40;99.90
67163;DHT22;54092;53.088;8.850;2023-07-20T14:17:40;20.40;99.90
67163;DHT22;54092;53.088;8.850;2023-07-20T14:20:06;20.30;99.90
67163;DHT22;54092;53.088;8.850;2023-07-20T14:22:33;20.10;99.90
67163;DHT22;54092;53.088;8.850;2023-07-20T14:24:58;20.00;99.90
67163;DHT22;54092;53.088;8.850;2023-07-20T14:27:24;19.90;99.90
67163;DHT22;54092;53.088;8.850;2023-07-20T14:29:49;19.90;99.90
67163;DHT22;54092;53.088;8.850;2023-07-20T14:32:15;19.80;99.90
67163;DHT22;54092;53.088;8.850;2023-07-20T14:34:40;19.70;99.90
67163;DHT22;54092;53.088;8.850;2023-07-20T14:37:06;19.70;99.90
67163;DHT22;54092;53.088;8.850;2023-07-20T14:39:32;19.70;99.90
67163;DHT22;54092;53.088;8.850;2023-07-20T14:41:58;19.70;99.90
67163;DHT22;54092;53.088;8.850;2023-07-20T14:44:23;19.60;99.90
67163;DHT22;54092;53.088;8.850;2023-07-20T14:46:49;19.70;99.90
67163;DHT22;54092;53.088;8.850;2023-07-20T14:49:15;19.80;99.90
67163;DHT22;54092;53.088;8.850;2023-07-20T14:51:40;19.80;99.90
67163;DHT22;54092;53.088;8.850;2023-07-20T14:54:12;19.90;99.90
67163;DHT22;54092;53.088;8.850;2023-07-20T14:56:38;19.90;99.90
67163;DHT22;54092;53.088;8.850;2023-07-20T14:59:04;19.80;99.90
67163;DHT22;54092;53.088;8.850;2023-07-20T15:01:31;19.70;99.90
67163;DHT22;54092;53.088;8.850;2023-07-20T15:03:56;19.80;99.90
67163;DHT22;54092;53.088;8.850;2023-07-20T15:06:23;19.80;99.90
67163;DHT22;54092;53.088;8.850;2023-07-20T15:08:48;19.70;99.90
67163;DHT22;54092;53.088;8.850;2023-07-20T15:11:14;19.80;99.90
67163;DHT22;54092;53.088;8.850;2023-07-20T15:13:39;19.80;99.90
67163;DHT22;54092;53.088;8.850;2023-07-20T15:16:08;19.90;99.90
67163;DHT22;54092;53.088;8.850;2023-07-20T15:18:34;19.80;99.90
67163;DHT22;54092;53.088;8.850;2023-07-20T15:21:00;19.80;99.90
67163;DHT22;54092;53.088;8.850;2023-07-20T15:23:25;19.90;99.90
67163;DHT22;54092;53.088;8.850;2023-07-20T15:25:51;19.90;99.90
67163;DHT22;54092;53.088;8.850;2023-07-20T15:28:16;19.80;99.90
67163;DHT22;54092;53.088;8.850;2023-07-20T15:30:42;19.80;99.90
67163;DHT22;54092;53.088;8.850;2023-07-20T15:33:07;19.70;99.90
67163;DHT22;54092;53.088;8.850;2023-07-20T15:35:33;19.70;99.90
67163;DHT22;54092;53.088;8.850;2023-07-20T15:37:58;19.70;99.90
67163;DHT22;54092;53.088;8.850;2023-07-20T15:40:25;19.60;99.90